Aérodrome :
LOGIN :

S'inscrire | Disclaimer

   EN    FR    IT 

 










Légende :    VFR   VFR Marginal   IFR   IFR Intensif   IFR Très Intensif
Visi : 
Plafond : 
>= 8 km
>= 3000ft
5 à 8 km
1000 à 3000 ft
1500m à 5 km
500 à 1000 ft
800 à 1500m
200 à 500 ft
< 800m
< 200 ft
Symboles :   Orages  Brouillard  Fortes neiges  Fortes précipitations  Vent > 20 kt
SIGMETs :   Divers  Orages  Givrage  Turbulence  Onde Orograph.  Cendres Volcan.







- Altitude de l'aérodrome : 284 ft


EGUW - RAF Wattisham

DERNIER METAR :
  • 191020Z 25013KT 9999 FEW025 BKN026 18/11 Q1012 TEMPO 6000 SHRA RMK BLU TEMPO WHT

METARs EXPIRÉS :
  • 190950Z 25012KT 9999 BKN025 18/12 Q1012 NOSIG RMK BLU BLU
  • 190920Z 24012KT 9999 BKN022 17/12 Q1012 BECMG SCT025 RMK WHT BECMG BLU
  • 190850Z 25013KT 9999 SCT018 17/12 Q1012 TEMPO FEW018 RMK WHT TEMPO BLU
  • 190820Z 25013KT 9999 FEW015 16/12 Q1011 TEMPO SCT015 RMK BLU TEMPO WHT
  • 190750Z 25012KT 9999 FEW015 15/12 Q1011 TEMPO SCT015 RMK BLU TEMPO WHT

TAF AMD TAF EGUW
Valide du 19 à 10h jusqu'au 19 à 18h UTC


191006Z 1910/1918 25012KT 9999 FEW020
TEMPO 1910/1911 SCT020
TEMPO 1911/1918 6000 SHRA
PROB30
TEMPO 1912/1918 25015G25KT 3000 +TSRA SCT035CB
Pas de NOTAMs connus pour ce terrain.



MET'MAP, la Météo Aéronautique d'un coup d'oeil ! - Copyright ORBIFLY Décembre 2007 - Disclaimer

ORBIFLY MET'MAP TEAM :

Programmation & Développement : Alexandra Zaïnal
Conception & Développement : Baudouin d'Aumeries
Co-Programmation & Développement : Marc-Olivier Méhu
Soutien technique & logistique : Manuel Goepfert

Contact : metmap@orbifly.com




SOURCES & CREDITS :

   NOAA